N37WX NZHN-NZAP
Flight info
| Callsign | N37WX |
|---|---|
| Flight time | 0h 24m |
| Altitude | 24000 |
| Route | KARBA H211 GOSTI |
| Aircraft | FA50/M-SDFGHIM1RWXY/H |
Departure
| Time | 2026-04-15 11:09 |
|---|---|
| Airport | Hamilton International Airport (NZHN) |
Arrival
| Time | 2026-04-15 11:34 |
|---|---|
| Airport | Taupo Airport (NZAP) |
| Time | Latitude | Longitude | Altitude | Speed | Heading |
|---|---|---|---|---|---|
| 2026-04-15 11:05 | -37.86502 | 175.33585 | 184 ft | 0 kts | 106° |
| 2026-04-15 11:06 | -37.86503 | 175.33586 | 184 ft | 2 kts | 112° |
| 2026-04-15 11:06 | -37.86523 | 175.33548 | 184 ft | 9 kts | 258° |
| 2026-04-15 11:06 | -37.86553 | 175.33493 | 183 ft | 8 kts | 227° |
| 2026-04-15 11:06 | -37.86556 | 175.33401 | 183 ft | 19 kts | 284° |
| 2026-04-15 11:07 | -37.86503 | 175.33287 | 184 ft | 13 kts | 9° |
| 2026-04-15 11:07 | -37.86279 | 175.33365 | 184 ft | 39 kts | 17° |
| 2026-04-15 11:07 | -37.86044 | 175.33452 | 185 ft | 31 kts | 16° |
| 2026-04-15 11:07 | -37.85850 | 175.33522 | 184 ft | 33 kts | 16° |
| 2026-04-15 11:08 | -37.85634 | 175.33611 | 184 ft | 14 kts | 32° |
| 2026-04-15 11:08 | -37.85603 | 175.33615 | 184 ft | 5 kts | 272° |
| 2026-04-15 11:08 | -37.85638 | 175.33600 | 184 ft | 4 kts | 190° |
| 2026-04-15 11:08 | -37.85654 | 175.33595 | 184 ft | 4 kts | 197° |
| 2026-04-15 11:09 | -37.85781 | 175.33550 | 184 ft | 46 kts | 197° |
| 2026-04-15 11:09 | -37.86324 | 175.33351 | 184 ft | 115 kts | 195° |
| 2026-04-15 11:09 | -37.87230 | 175.33019 | 319 ft | 148 kts | 198° |
| 2026-04-15 11:09 | -37.88206 | 175.32582 | 967 ft | 154 kts | 194° |
| 2026-04-15 11:10 | -37.89301 | 175.32577 | 1469 ft | 175 kts | 159° |
| 2026-04-15 11:10 | -37.90422 | 175.33554 | 1725 ft | 215 kts | 136° |
| 2026-04-15 11:10 | -37.91513 | 175.34755 | 2889 ft | 209 kts | 139° |
| 2026-04-15 11:10 | -37.92633 | 175.35886 | 3889 ft | 213 kts | 140° |
| 2026-04-15 11:11 | -37.93789 | 175.37018 | 4840 ft | 218 kts | 140° |
| 2026-04-15 11:11 | -37.94968 | 175.38168 | 5852 ft | 221 kts | 140° |
| 2026-04-15 11:11 | -37.96164 | 175.39334 | 6883 ft | 222 kts | 140° |
| 2026-04-15 11:11 | -37.97345 | 175.40486 | 8042 ft | 219 kts | 140° |
| 2026-04-15 11:12 | -37.98549 | 175.41664 | 9116 ft | 221 kts | 141° |
| 2026-04-15 11:12 | -37.99750 | 175.42835 | 10157 ft | 225 kts | 140° |
| 2026-04-15 11:12 | -38.00973 | 175.44031 | 11262 ft | 224 kts | 141° |
| 2026-04-15 11:12 | -38.02197 | 175.45227 | 12272 ft | 226 kts | 142° |
| 2026-04-15 11:13 | -38.03431 | 175.46433 | 13224 ft | 229 kts | 141° |
| 2026-04-15 11:13 | -38.04681 | 175.47655 | 14174 ft | 231 kts | 141° |
| 2026-04-15 11:13 | -38.05912 | 175.48860 | 15051 ft | 233 kts | 140° |
| 2026-04-15 11:13 | -38.07190 | 175.50113 | 15916 ft | 236 kts | 140° |
| 2026-04-15 11:14 | -38.08475 | 175.51372 | 16741 ft | 239 kts | 139° |
| 2026-04-15 11:14 | -38.09800 | 175.52670 | 17552 ft | 242 kts | 139° |
| 2026-04-15 11:14 | -38.11113 | 175.53957 | 18309 ft | 245 kts | 138° |
| 2026-04-15 11:14 | -38.12452 | 175.55272 | 19042 ft | 249 kts | 137° |
| 2026-04-15 11:15 | -38.13828 | 175.56622 | 19753 ft | 253 kts | 137° |
| 2026-04-15 11:15 | -38.15225 | 175.57994 | 20436 ft | 257 kts | 136° |
| 2026-04-15 11:15 | -38.16636 | 175.59383 | 21091 ft | 261 kts | 136° |
| 2026-04-15 11:15 | -38.18062 | 175.60774 | 21718 ft | 266 kts | 139° |
| 2026-04-15 11:16 | -38.19640 | 175.62056 | 22312 ft | 271 kts | 137° |
| 2026-04-15 11:16 | -38.21185 | 175.63419 | 22890 ft | 276 kts | 139° |
| 2026-04-15 11:16 | -38.22814 | 175.64771 | 23459 ft | 282 kts | 139° |
| 2026-04-15 11:16 | -38.24461 | 175.66124 | 23865 ft | 293 kts | 139° |
| 2026-04-15 11:17 | -38.26229 | 175.67583 | 23859 ft | 318 kts | 140° |
| 2026-04-15 11:17 | -38.28156 | 175.69168 | 23855 ft | 342 kts | 140° |
| 2026-04-15 11:17 | -38.30138 | 175.70799 | 23842 ft | 363 kts | 140° |
| 2026-04-15 11:17 | -38.32277 | 175.72557 | 23470 ft | 369 kts | 141° |
| 2026-04-15 11:18 | -38.34378 | 175.74283 | 22909 ft | 365 kts | 141° |
| 2026-04-15 11:18 | -38.36483 | 175.76018 | 22338 ft | 360 kts | 141° |
| 2026-04-15 11:18 | -38.38567 | 175.77736 | 21764 ft | 356 kts | 141° |
| 2026-04-15 11:18 | -38.40622 | 175.79434 | 20987 ft | 351 kts | 142° |
| 2026-04-15 11:19 | -38.42613 | 175.81078 | 20168 ft | 334 kts | 142° |
| 2026-04-15 11:19 | -38.44501 | 175.82638 | 19366 ft | 319 kts | 142° |
| 2026-04-15 11:19 | -38.46310 | 175.84128 | 18568 ft | 308 kts | 144° |
| 2026-04-15 11:19 | -38.48226 | 175.85226 | 17783 ft | 313 kts | 165° |
| 2026-04-15 11:20 | -38.50438 | 175.85045 | 17033 ft | 330 kts | 194° |
| 2026-04-15 11:20 | -38.52403 | 175.83479 | 16279 ft | 345 kts | 223° |
| 2026-04-15 11:20 | -38.53646 | 175.80824 | 15514 ft | 356 kts | 251° |
| 2026-04-15 11:20 | -38.53801 | 175.77763 | 15045 ft | 352 kts | 279° |
| 2026-04-15 11:21 | -38.52856 | 175.74942 | 14691 ft | 342 kts | 308° |
| 2026-04-15 11:21 | -38.51085 | 175.73086 | 14346 ft | 328 kts | 338° |
| 2026-04-15 11:21 | -38.48885 | 175.72429 | 14016 ft | 329 kts | 356° |
| 2026-04-15 11:21 | -38.46610 | 175.72166 | 13576 ft | 331 kts | 357° |
| 2026-04-15 11:22 | -38.44276 | 175.71874 | 12800 ft | 343 kts | 355° |
| 2026-04-15 11:22 | -38.41911 | 175.71526 | 12020 ft | 352 kts | 354° |
| 2026-04-15 11:22 | -38.39449 | 175.71137 | 11224 ft | 360 kts | 354° |
| 2026-04-15 11:22 | -38.36970 | 175.70766 | 10459 ft | 364 kts | 355° |
| 2026-04-15 11:23 | -38.34554 | 175.70776 | 9859 ft | 336 kts | 16° |
| 2026-04-15 11:23 | -38.32616 | 175.72127 | 9454 ft | 302 kts | 46° |
| 2026-04-15 11:23 | -38.31616 | 175.74315 | 9067 ft | 279 kts | 77° |
| 2026-04-15 11:23 | -38.31697 | 175.76656 | 8696 ft | 269 kts | 110° |
| 2026-04-15 11:24 | -38.32839 | 175.78567 | 8348 ft | 285 kts | 142° |
| 2026-04-15 11:24 | -38.34691 | 175.79501 | 7905 ft | 296 kts | 165° |
| 2026-04-15 11:24 | -38.36656 | 175.80306 | 7421 ft | 297 kts | 157° |
| 2026-04-15 11:24 | -38.38571 | 175.81253 | 6918 ft | 294 kts | 156° |
| 2026-04-15 11:25 | -38.40453 | 175.82169 | 6418 ft | 292 kts | 158° |
| 2026-04-15 11:25 | -38.42347 | 175.83050 | 5920 ft | 291 kts | 159° |
| 2026-04-15 11:25 | -38.44228 | 175.83902 | 5426 ft | 290 kts | 159° |
| 2026-04-15 11:25 | -38.46144 | 175.84732 | 4923 ft | 288 kts | 160° |
| 2026-04-15 11:26 | -38.48021 | 175.85449 | 4427 ft | 287 kts | 168° |
| 2026-04-15 11:26 | -38.50034 | 175.85709 | 3925 ft | 286 kts | 177° |
| 2026-04-15 11:26 | -38.51991 | 175.85873 | 3432 ft | 285 kts | 174° |
| 2026-04-15 11:26 | -38.53951 | 175.86113 | 2938 ft | 282 kts | 173° |
| 2026-04-15 11:27 | -38.55799 | 175.86389 | 2978 ft | 259 kts | 166° |
| 2026-04-15 11:27 | -38.57220 | 175.87508 | 3145 ft | 230 kts | 127° |
| 2026-04-15 11:27 | -38.58013 | 175.89142 | 3278 ft | 208 kts | 110° |
| 2026-04-15 11:27 | -38.58391 | 175.91051 | 3553 ft | 228 kts | 97° |
| 2026-04-15 11:28 | -38.58631 | 175.93054 | 3661 ft | 227 kts | 98° |
| 2026-04-15 11:28 | -38.58863 | 175.94939 | 3688 ft | 210 kts | 92° |
| 2026-04-15 11:28 | -38.58918 | 175.96788 | 3512 ft | 204 kts | 88° |
| 2026-04-15 11:28 | -38.58921 | 175.98546 | 3452 ft | 192 kts | 88° |
| 2026-04-15 11:29 | -38.58920 | 176.00212 | 3383 ft | 185 kts | 88° |
| 2026-04-15 11:29 | -38.58918 | 176.01827 | 3319 ft | 178 kts | 88° |
| 2026-04-15 11:29 | -38.58917 | 176.03394 | 3245 ft | 172 kts | 87° |
| 2026-04-15 11:29 | -38.58915 | 176.04869 | 3191 ft | 165 kts | 88° |
| 2026-04-15 11:30 | -38.58913 | 176.06328 | 3113 ft | 161 kts | 87° |
| 2026-04-15 11:30 | -38.59168 | 176.07666 | 3059 ft | 156 kts | 126° |
| 2026-04-15 11:30 | -38.59954 | 176.08473 | 3033 ft | 155 kts | 152° |
| 2026-04-15 11:30 | -38.61010 | 176.08897 | 3009 ft | 160 kts | 170° |
| 2026-04-15 11:31 | -38.62122 | 176.08974 | 2899 ft | 171 kts | 180° |
| 2026-04-15 11:31 | -38.63329 | 176.08966 | 2941 ft | 168 kts | 178° |
| 2026-04-15 11:31 | -38.64532 | 176.08943 | 2762 ft | 182 kts | 181° |
| 2026-04-15 11:31 | -38.65787 | 176.08960 | 2774 ft | 182 kts | 175° |
| 2026-04-15 11:32 | -38.66991 | 176.09117 | 2824 ft | 181 kts | 173° |
| 2026-04-15 11:32 | -38.68289 | 176.09323 | 2646 ft | 191 kts | 172° |
| 2026-04-15 11:32 | -38.69467 | 176.09555 | 2592 ft | 148 kts | 173° |
| 2026-04-15 11:32 | -38.70432 | 176.09546 | 2210 ft | 135 kts | 190° |
| 2026-04-15 11:33 | -38.71303 | 176.09367 | 1854 ft | 125 kts | 191° |
| 2026-04-15 11:33 | -38.72164 | 176.09128 | 1630 ft | 123 kts | 195° |
| 2026-04-15 11:33 | -38.72958 | 176.08856 | 1489 ft | 111 kts | 194° |
| 2026-04-15 11:33 | -38.73711 | 176.08607 | 1344 ft | 104 kts | 193° |
| 2026-04-15 11:34 | -38.74287 | 176.08418 | 1336 ft | 39 kts | 196° |
| 2026-04-15 11:34 | -38.74326 | 176.08401 | 1335 ft | 0 kts | 202° |
| 2026-04-15 11:34 | -38.74328 | 176.08401 | 1335 ft | 5 kts | 207° |
| 2026-04-15 11:35 | -38.74340 | 176.08406 | 1335 ft | 5 kts | 358° |
| 2026-04-15 11:35 | -38.74250 | 176.08424 | 1336 ft | 24 kts | 13° |
| 2026-04-15 11:35 | -38.74108 | 176.08476 | 1337 ft | 19 kts | 15° |
| 2026-04-15 11:35 | -38.73996 | 176.08456 | 1335 ft | 15 kts | 276° |
| 2026-04-15 11:36 | -38.73977 | 176.08397 | 1333 ft | 0 kts | 302° |
| 2026-04-15 11:36 | -38.73959 | 176.08365 | 1332 ft | 7 kts | 306° |
| 2026-04-15 11:36 | -38.73931 | 176.08345 | 1331 ft | 2 kts | 6° |
| 2026-04-15 11:36 | -38.73926 | 176.08345 | 1331 ft | 0 kts | 9° |
| 2026-04-15 11:37 | -38.73925 | 176.08345 | 1331 ft | 0 kts | 10° |